| time (UTC) | temp C | wind direction | speed KPH | gust KPH | rain 1hr cm | rain 24hr cm | rain mn cm | humidity % | barometer mb |
| 20260508024102 | 13 | 115 | 1.6 | 3.2 | 0.00 | 0.15 | 0.15 | 59 | 1015.1 |
| 20260508023558 | 13 | 255 | 0.0 | 1.6 | 0.00 | 0.15 | 0.15 | 57 | 1014.5 |
| 20260508023056 | 13 | 259 | 1.6 | 3.2 | 0.00 | 0.15 | 0.15 | 56 | 1014.8 |
| 20260508022551 | 15 | 258 | 3.2 | 4.8 | 0.00 | 0.15 | 0.15 | 53 | 1014.7 |
| 20260508022049 | 15 | 258 | 9.7 | 11.3 | 0.00 | 0.15 | 0.15 | 49 | 1014.5 |
| 20260508021544 | 15 | 250 | 3.2 | 3.2 | 0.00 | 0.15 | 0.15 | 49 | 1014.7 |
| 20260508021040 | 15 | 244 | 1.6 | 1.6 | 0.00 | 0.15 | 0.15 | 49 | 1014.4 |
| 20260508020538 | 16 | 250 | 1.6 | 3.2 | 0.00 | 0.15 | 0.15 | 50 | 1014.5 |
| 20260508020036 | 16 | 255 | 1.6 | 3.2 | 0.00 | 0.15 | 0.15 | 47 | 1014.5 |
| 20260508015533 | 16 | 255 | 4.8 | 8.0 | 0.00 | 0.15 | 0.15 | 45 | 1014.3 |
| 20260508015030 | 16 | 251 | 4.8 | 8.0 | 0.00 | 0.15 | 0.15 | 45 | 1014.5 |
| 20260508014526 | 16 | 213 | 6.4 | 9.7 | 0.00 | 0.15 | 0.15 | 46 | 1014.4 |
| 20260508014023 | 16 | 239 | 8.0 | 9.7 | 0.00 | 0.15 | 0.15 | 45 | 1014.3 |
| 20260508013519 | 16 | 203 | 8.0 | 11.3 | 0.00 | 0.15 | 0.15 | 44 | 1014.3 |
| 20260508013016 | 16 | 216 | 9.7 | 11.3 | 0.00 | 0.15 | 0.15 | 45 | 1014.2 |
| 20260508012513 | 16 | 249 | 4.8 | 8.0 | 0.00 | 0.15 | 0.15 | 43 | 1014.2 |
| 20260508012011 | 16 | 237 | 4.8 | 4.8 | 0.00 | 0.15 | 0.15 | 42 | 1014.3 |
| 20260508011509 | 16 | 251 | 3.2 | 3.2 | 0.00 | 0.15 | 0.15 | 42 | 1014.7 |
| 20260508011006 | 16 | 242 | 4.8 | 4.8 | 0.00 | 0.15 | 0.15 | 44 | 1014.3 |
| 20260508010503 | 16 | 236 | 1.6 | 4.8 | 0.00 | 0.15 | 0.15 | 44 | 1014.4 |
| 20260508010000 | 16 | 222 | 4.8 | 9.7 | 0.00 | 0.15 | 0.15 | 43 | 1014.8 |
| 20260508005456 | 17 | 264 | 6.4 | 9.7 | 0.00 | 0.15 | 0.15 | 43 | 1014.5 |
| 20260508004953 | 17 | 281 | 4.8 | 9.7 | 0.00 | 0.15 | 0.15 | 44 | 1014.9 |
| 20260508004449 | 16 | 309 | 6.4 | 9.7 | 0.00 | 0.15 | 0.15 | 42 | 1014.9 |
| 20260508003946 | 16 | 265 | 6.4 | 11.3 | 0.00 | 0.15 | 0.15 | 43 | 1014.8 |
| 20260508003443 | 16 | 273 | 4.8 | 9.7 | 0.00 | 0.15 | 0.15 | 46 | 1014.9 |
| 20260508002940 | 16 | 310 | 4.8 | 8.0 | 0.00 | 0.15 | 0.15 | 47 | 1015.0 |
| 20260508002436 | 16 | 333 | 6.4 | 12.9 | 0.00 | 0.15 | 0.15 | 45 | 1014.8 |
| 20260508001932 | 16 | 334 | 11.3 | 16.1 | 0.00 | 0.15 | 0.15 | 44 | 1014.9 |
| 20260508001429 | 16 | 286 | 6.4 | 8.0 | 0.00 | 0.15 | 0.15 | 44 | 1015.1 |
| 20260508000925 | 16 | 8 | 9.7 | 12.9 | 0.00 | 0.15 | 0.15 | 44 | 1015.2 |
| 20260508000421 | 16 | 49 | 6.4 | 9.7 | 0.00 | 0.15 | 0.15 | 43 | 1014.9 |
| 20260507235918 | 16 | 1 | 3.2 | 4.8 | 0.00 | 0.15 | 0.15 | 42 | 1014.8 |
| 20260507235415 | 16 | 89 | 1.6 | 4.8 | 0.00 | 0.15 | 0.15 | 43 | 1014.9 |
| 20260507234912 | 16 | 159 | 6.4 | 9.7 | 0.00 | 0.15 | 0.15 | 44 | 1014.5 |
| 20260507234409 | 16 | 112 | 3.2 | 8.0 | 0.00 | 0.15 | 0.15 | 46 | 1014.4 |
| 20260507233906 | 16 | 105 | 3.2 | 9.7 | 0.00 | 0.15 | 0.15 | 45 | 1014.5 |
| 20260507233403 | 16 | 63 | 4.8 | 14.5 | 0.00 | 0.15 | 0.15 | 45 | 1014.8 |
| 20260507232901 | 16 | 62 | 6.4 | 12.9 | 0.00 | 0.15 | 0.15 | 45 | 1014.9 |
| 20260507232357 | 16 | 71 | 9.7 | 16.1 | 0.00 | 0.15 | 0.15 | 46 | 1015.0 |
| 20260507231855 | 16 | 55 | 9.7 | 17.7 | 0.00 | 0.15 | 0.15 | 48 | 1014.8 |
| 20260507231351 | 15 | 25 | 4.8 | 12.9 | 0.00 | 0.15 | 0.15 | 52 | 1014.8 |
| 20260507230847 | 15 | 63 | 11.3 | 16.1 | 0.00 | 0.15 | 0.15 | 51 | 1014.7 |
| 20260507230345 | 15 | 73 | 17.7 | 20.9 | 0.00 | 0.15 | 0.15 | 50 | 1014.4 |
| 20260507225844 | 15 | 78 | 8.0 | 17.7 | 0.00 | 0.15 | 0.15 | 52 | 1014.4 |
| 20260507225341 | 15 | 77 | 16.1 | 22.5 | 0.00 | 0.15 | 0.15 | 54 | 1014.4 |
| 20260507224837 | 15 | 75 | 20.9 | 27.4 | 0.00 | 0.15 | 0.15 | 57 | 1014.8 |
| 20260507224334 | 13 | 49 | 16.1 | 27.4 | 0.00 | 0.15 | 0.15 | 59 | 1014.9 |
| 20260507223830 | 14 | 76 | 22.5 | 32.2 | 0.00 | 0.15 | 0.15 | 59 | 1014.3 |
| 20260507223326 | 14 | 43 | 14.5 | 25.7 | 0.00 | 0.15 | 0.15 | 58 | 1014.7 |
| 20260507222824 | 14 | 48 | 16.1 | 33.8 | 0.00 | 0.15 | 0.15 | 57 | 1014.4 |
| 20260507222320 | 17 | 291 | 17.7 | 33.8 | 0.00 | 0.15 | 0.15 | 50 | 1014.5 |
| 20260507221817 | 17 | 256 | 1.6 | 8.0 | 0.00 | 0.15 | 0.15 | 41 | 1014.3 |
| 20260507221314 | 17 | 269 | 8.0 | 9.7 | 0.00 | 0.15 | 0.15 | 41 | 1014.1 |
| 20260507220809 | 17 | 20 | 4.8 | 8.0 | 0.00 | 0.15 | 0.15 | 40 | 1014.1 |
| 20260507220308 | 17 | 11 | 8.0 | 11.3 | 0.00 | 0.15 | 0.15 | 40 | 1014.1 |
| 20260507215804 | 18 | 291 | 3.2 | 4.8 | 0.00 | 0.15 | 0.15 | 39 | 1014.3 |
| 20260507215302 | 19 | 32 | 8.0 | 14.5 | 0.00 | 0.15 | 0.15 | 38 | 1014.2 |
| 20260507214758 | 18 | 3 | 1.6 | 8.0 | 0.00 | 0.15 | 0.15 | 38 | 1014.3 |
| 20260507214256 | 18 | 64 | 3.2 | 11.3 | 0.00 | 0.15 | 0.15 | 40 | 1014.4 |
| 20260507213750 | 18 | 357 | 9.7 | 14.5 | 0.00 | 0.15 | 0.15 | 39 | 1014.2 |
| 20260507213248 | 18 | 329 | 8.0 | 16.1 | 0.00 | 0.15 | 0.15 | 40 | 1014.4 |
| 20260507212745 | 17 | 75 | 11.3 | 14.5 | 0.00 | 0.15 | 0.15 | 42 | 1014.4 |
| 20260507212241 | 18 | 82 | 12.9 | 17.7 | 0.00 | 0.15 | 0.15 | 43 | 1014.4 |
| 20260507211738 | 18 | 66 | 6.4 | 12.9 | 0.00 | 0.15 | 0.15 | 42 | 1014.5 |
| 20260507211234 | 18 | 87 | 16.1 | 20.9 | 0.00 | 0.15 | 0.15 | 43 | 1014.5 |
| 20260507210731 | 18 | 353 | 8.0 | 16.1 | 0.00 | 0.15 | 0.15 | 45 | 1014.8 |
| 20260507210228 | 17 | 0 | 11.3 | 16.1 | 0.00 | 0.15 | 0.15 | 43 | 1014.8 |
| 20260507205724 | 18 | 11 | 12.9 | 27.4 | 0.00 | 0.15 | 0.15 | 44 | 1014.9 |
| 20260507205221 | 18 | 68 | 14.5 | 20.9 | 0.00 | 0.15 | 0.15 | 44 | 1014.8 |
| 20260507204717 | 18 | 8 | 16.1 | 17.7 | 0.00 | 0.15 | 0.15 | 43 | 1015.0 |
| 20260507204215 | 18 | 76 | 4.8 | 16.1 | 0.00 | 0.15 | 0.15 | 43 | 1014.7 |
| 20260507203713 | 18 | 346 | 11.3 | 14.5 | 0.00 | 0.15 | 0.15 | 42 | 1014.8 |
| 20260507203210 | 17 | 86 | 4.8 | 11.3 | 0.00 | 0.15 | 0.15 | 46 | 1014.9 |
| 20260507202706 | 17 | 54 | 6.4 | 9.7 | 0.00 | 0.15 | 0.15 | 44 | 1014.9 |
| 20260507202202 | 17 | 4 | 8.0 | 12.9 | 0.00 | 0.15 | 0.15 | 43 | 1015.0 |
| 20260507201657 | 17 | 331 | 4.8 | 12.9 | 0.00 | 0.15 | 0.15 | 44 | 1014.8 |
| 20260507201154 | 17 | 27 | 8.0 | 11.3 | 0.00 | 0.15 | 0.15 | 43 | 1015.0 |
| 20260507200650 | 17 | 299 | 8.0 | 14.5 | 0.00 | 0.15 | 0.15 | 43 | 1014.8 |
| 20260507200146 | 17 | 259 | 4.8 | 12.9 | 0.00 | 0.15 | 0.15 | 40 | 1014.9 |
| 20260507195643 | 17 | 297 | 12.9 | 14.5 | 0.00 | 0.15 | 0.15 | 42 | 1014.8 |
| 20260507195140 | 17 | 292 | 8.0 | 11.3 | 0.00 | 0.15 | 0.15 | 43 | 1014.8 |
| 20260507194637 | 18 | 350 | 3.2 | 14.5 | 0.00 | 0.15 | 0.15 | 45 | 1015.1 |
| 20260507194132 | 17 | 19 | 1.6 | 8.0 | 0.00 | 0.15 | 0.15 | 41 | 1015.0 |
| 20260507193630 | 17 | 326 | 8.0 | 12.9 | 0.00 | 0.15 | 0.15 | 44 | 1014.9 |
| 20260507193127 | 17 | 333 | 1.6 | 3.2 | 0.00 | 0.15 | 0.15 | 44 | 1015.2 |
| 20260507192623 | 17 | 292 | 3.2 | 14.5 | 0.00 | 0.15 | 0.15 | 49 | 1015.1 |
| 20260507192120 | 16 | 105 | 3.2 | 8.0 | 0.00 | 0.15 | 0.15 | 49 | 1015.1 |
| 20260507191616 | 16 | 358 | 6.4 | 8.0 | 0.00 | 0.15 | 0.15 | 49 | 1015.1 |
| 20260507191112 | 15 | 341 | 3.2 | 4.8 | 0.00 | 0.15 | 0.15 | 49 | 1015.2 |
| 20260507190610 | 16 | 335 | 6.4 | 11.3 | 0.00 | 0.15 | 0.15 | 50 | 1015.2 |
| 20260507190109 | 16 | 47 | 8.0 | 11.3 | 0.00 | 0.15 | 0.15 | 52 | 1015.4 |
| 20260507185607 | 16 | 47 | 6.4 | 9.7 | 0.00 | 0.15 | 0.15 | 51 | 1015.3 |
| 20260507185103 | 15 | 36 | 3.2 | 8.0 | 0.00 | 0.15 | 0.15 | 55 | 1015.6 |
| 20260507184601 | 15 | 17 | 3.2 | 9.7 | 0.00 | 0.15 | 0.15 | 56 | 1015.6 |
| 20260507184059 | 15 | 12 | 8.0 | 17.7 | 0.00 | 0.15 | 0.15 | 53 | 1015.7 |
| 20260507183555 | 16 | 56 | 14.5 | 20.9 | 0.00 | 0.15 | 0.15 | 51 | 1015.4 |
| 20260507183052 | 16 | 16 | 17.7 | 24.1 | 0.00 | 0.15 | 0.15 | 52 | 1015.7 |
| 20260507182548 | 15 | 359 | 11.3 | 17.7 | 0.00 | 0.15 | 0.15 | 57 | 1015.4 |
| 20260507182044 | 15 | 104 | 9.7 | 14.5 | 0.00 | 0.15 | 0.15 | 63 | 1015.6 |
| 20260507181541 | 14 | 53 | 4.8 | 17.7 | 0.00 | 0.15 | 0.15 | 64 | 1015.6 |
| 20260507181037 | 15 | 60 | 9.7 | 24.1 | 0.18 | 0.15 | 0.15 | 62 | 1015.6 |
| 20260507180534 | 14 | 6 | 14.5 | 22.5 | 0.30 | 0.15 | 0.15 | 60 | 1015.7 |
| 20260507180031 | 14 | 354 | 6.4 | 9.7 | 0.13 | 0.13 | 0.13 | 60 | 1015.7 |
| 20260507175527 | 15 | 89 | 4.8 | 14.5 | 0.00 | 0.10 | 0.10 | 56 | 1015.7 |
| 20260507175025 | 14 | 73 | 9.7 | 12.9 | 0.00 | 0.10 | 0.10 | 59 | 1015.4 |
| 20260507174521 | 15 | 107 | 9.7 | 17.7 | 0.00 | 0.10 | 0.10 | 60 | 1015.4 |
| 20260507174019 | 15 | 358 | 9.7 | 16.1 | 0.00 | 0.10 | 0.10 | 58 | 1015.3 |
| 20260507173516 | 16 | 326 | 11.3 | 17.7 | 0.00 | 0.10 | 0.10 | 52 | 1015.6 |
| 20260507173013 | 16 | 350 | 9.7 | 16.1 | 0.00 | 0.10 | 0.10 | 50 | 1015.1 |
| 20260507172509 | 16 | 335 | 11.3 | 14.5 | 0.00 | 0.10 | 0.10 | 49 | 1015.1 |
| 20260507172006 | 16 | 283 | 9.7 | 12.9 | 0.00 | 0.10 | 0.10 | 55 | 1015.1 |
| 20260507171501 | 16 | 259 | 4.8 | 9.7 | 0.00 | 0.10 | 0.10 | 55 | 1015.2 |
| 20260507171000 | 16 | 286 | 1.6 | 14.5 | 0.00 | 0.10 | 0.10 | 56 | 1015.2 |
| 20260507170455 | 16 | 232 | 6.4 | 12.9 | 0.00 | 0.10 | 0.10 | 57 | 1015.1 |
| 20260507165952 | 15 | 262 | 9.7 | 11.3 | 0.00 | 0.10 | 0.10 | 58 | 1015.2 |
| 20260507165448 | 15 | 186 | 0.0 | 1.6 | 0.00 | 0.10 | 0.10 | 58 | 1015.3 |
| 20260507164944 | 15 | 291 | 9.7 | 11.3 | 0.00 | 0.10 | 0.10 | 60 | 1015.6 |
| 20260507164441 | 15 | 226 | 8.0 | 9.7 | 0.00 | 0.10 | 0.10 | 59 | 1015.2 |
| 20260507163938 | 15 | 279 | 4.8 | 11.3 | 0.00 | 0.10 | 0.10 | 60 | 1015.2 |
| 20260507163435 | 15 | 200 | 4.8 | 4.8 | 0.00 | 0.10 | 0.10 | 62 | 1015.6 |
| 20260507162932 | 15 | 227 | 8.0 | 9.7 | 0.00 | 0.10 | 0.10 | 62 | 1015.7 |
| 20260507162427 | 15 | 226 | 1.6 | 8.0 | 0.00 | 0.10 | 0.10 | 62 | 1015.4 |
| 20260507161925 | 15 | 193 | 4.8 | 9.7 | 0.00 | 0.10 | 0.10 | 65 | 1015.4 |
| 20260507161421 | 14 | 167 | 6.4 | 9.7 | 0.00 | 0.10 | 0.10 | 64 | 1015.6 |
| 20260507160918 | 13 | 189 | 3.2 | 4.8 | 0.00 | 0.10 | 0.10 | 67 | 1015.8 |
| 20260507160414 | 13 | 278 | 3.2 | 4.8 | 0.00 | 0.10 | 0.10 | 67 | 1015.8 |
| 20260507155910 | 13 | 295 | 1.6 | 3.2 | 0.00 | 0.10 | 0.10 | 66 | 1015.9 |
| 20260507155406 | 13 | 342 | 0.0 | 3.2 | 0.00 | 0.10 | 0.10 | 66 | 1015.9 |
| 20260507154903 | 12 | 1 | 1.6 | 4.8 | 0.00 | 0.10 | 0.10 | 65 | 1015.7 |
| 20260507154400 | 13 | 323 | 4.8 | 8.0 | 0.00 | 0.10 | 0.10 | 65 | 1015.8 |
| 20260507153951 | 13 | 21 | 4.8 | 8.0 | 0.00 | 0.10 | 0.10 | 66 | 1015.6 |
| 20260507153857 | 13 | 21 | 4.8 | 8.0 | 0.00 | 0.10 | 0.10 | 66 | 1015.6 |
| 20260507153353 | 13 | 32 | 4.8 | 4.8 | 0.00 | 0.10 | 0.10 | 67 | 1015.8 |
| 20260507153215 | 12 | 2 | 4.8 | 4.8 | 0.00 | 0.10 | 0.10 | 69 | 1015.7 |
| 20260507152850 | 12 | 2 | 4.8 | 4.8 | 0.00 | 0.10 | 0.10 | 69 | 1015.7 |
| 20260507152559 | 12 | 321 | 3.2 | 3.2 | 0.00 | 0.10 | 0.10 | 68 | 1015.8 |
| 20260507152347 | 12 | 58 | 3.2 | 3.2 | 0.00 | 0.10 | 0.10 | 70 | 1015.8 |
| 20260507151843 | 12 | 321 | 3.2 | 3.2 | 0.00 | 0.10 | 0.10 | 68 | 1015.8 |
| 20260507151339 | 12 | 48 | 1.6 | 3.2 | 0.00 | 0.10 | 0.10 | 68 | 1015.8 |
| 20260507150836 | 12 | 196 | 1.6 | 3.2 | 0.00 | 0.10 | 0.10 | 69 | 1015.3 |
| 20260507150333 | 11 | 257 | 3.2 | 4.8 | 0.00 | 0.10 | 0.10 | 74 | 1015.6 |
| 20260507145829 | 11 | 296 | 3.2 | 4.8 | 0.00 | 0.10 | 0.10 | 78 | 1015.6 |
| 20260507145325 | 11 | 286 | 4.8 | 9.7 | 0.00 | 0.10 | 0.10 | 78 | 1015.9 |
| 20260507144823 | 11 | 322 | 11.3 | 12.9 | 0.00 | 0.10 | 0.10 | 78 | 1015.9 |
| 20260507144320 | 11 | 324 | 4.8 | 4.8 | 0.00 | 0.10 | 0.10 | 78 | 1015.7 |
| 20260507143816 | 11 | 320 | 4.8 | 4.8 | 0.00 | 0.10 | 0.10 | 77 | 1015.7 |
| 20260507143314 | 11 | 330 | 1.6 | 3.2 | 0.00 | 0.10 | 0.10 | 77 | 1015.3 |
| 20260507142809 | 10 | 294 | 1.6 | 3.2 | 0.00 | 0.10 | 0.10 | 77 | 1015.3 |
| 20260507142307 | 10 | 253 | 1.6 | 3.2 | 0.00 | 0.10 | 0.10 | 78 | 1015.2 |
| 20260507141803 | 10 | 272 | 1.6 | 4.8 | 0.00 | 0.10 | 0.10 | 79 | 1015.0 |
| 20260507141300 | 10 | 225 | 3.2 | 8.0 | 0.00 | 0.10 | 0.10 | 79 | 1014.8 |
| 20260507140755 | 10 | 218 | 3.2 | 4.8 | 0.00 | 0.10 | 0.10 | 80 | 1014.7 |
| 20260507140253 | 10 | 230 | 1.6 | 4.8 | 0.00 | 0.10 | 0.10 | 79 | 1014.9 |
| 20260507135750 | 10 | 248 | 4.8 | 4.8 | 0.00 | 0.10 | 0.10 | 80 | 1014.7 |
| 20260507135247 | 10 | 212 | 3.2 | 3.2 | 0.00 | 0.10 | 0.10 | 81 | 1014.9 |
| 20260507134743 | 10 | 188 | 1.6 | 3.2 | 0.00 | 0.10 | 0.10 | 81 | 1014.9 |
| 20260507134240 | 10 | 203 | 4.8 | 4.8 | 0.00 | 0.10 | 0.10 | 81 | 1014.9 |
| 20260507133736 | 9 | 202 | 1.6 | 3.2 | 0.00 | 0.10 | 0.10 | 82 | 1014.9 |
| 20260507133233 | 9 | 196 | 1.6 | 1.6 | 0.00 | 0.10 | 0.10 | 82 | 1014.7 |
| 20260507132731 | 9 | 227 | 3.2 | 3.2 | 0.00 | 0.10 | 0.10 | 82 | 1014.9 |
| 20260507132227 | 9 | 241 | 6.4 | 8.0 | 0.00 | 0.10 | 0.10 | 82 | 1014.8 |
| 20260507131724 | 9 | 187 | 4.8 | 8.0 | 0.00 | 0.10 | 0.10 | 81 | 1014.4 |
| 20260507131221 | 9 | 174 | 8.0 | 9.7 | 0.00 | 0.10 | 0.10 | 80 | 1014.1 |
| 20260507130718 | 9 | 130 | 3.2 | 4.8 | 0.00 | 0.10 | 0.10 | 80 | 1014.5 |
| 20260507130216 | 9 | 100 | 4.8 | 4.8 | 0.00 | 0.10 | 0.10 | 81 | 1014.8 |
| 20260507125714 | 9 | 81 | 4.8 | 8.0 | 0.00 | 0.10 | 0.10 | 81 | 1014.4 |
| 20260507125212 | 9 | 94 | 4.8 | 8.0 | 0.00 | 0.10 | 0.10 | 81 | 1014.3 |
| 20260507124708 | 9 | 83 | 1.6 | 4.8 | 0.00 | 0.10 | 0.10 | 81 | 1014.3 |
| 20260507124205 | 8 | 87 | 6.4 | 9.7 | 0.00 | 0.10 | 0.10 | 83 | 1014.2 |
| 20260507123703 | 8 | 72 | 4.8 | 9.7 | 0.00 | 0.10 | 0.10 | 83 | 1014.3 |
| 20260507123200 | 8 | 72 | 3.2 | 8.0 | 0.00 | 0.10 | 0.10 | 82 | 1014.4 |
| 20260507122655 | 8 | 58 | 4.8 | 8.0 | 0.00 | 0.10 | 0.10 | 81 | 1014.5 |
| 20260507122151 | 9 | 50 | 1.6 | 4.8 | 0.00 | 0.10 | 0.10 | 79 | 1014.7 |
| 20260507121647 | 8 | 29 | 0.0 | 1.6 | 0.00 | 0.10 | 0.10 | 80 | 1014.3 |
| 20260507121143 | 8 | 241 | 4.8 | 4.8 | 0.00 | 0.10 | 0.10 | 81 | 1014.3 |
| 20260507120640 | 8 | 195 | 1.6 | 4.8 | 0.00 | 0.10 | 0.10 | 81 | 1014.2 |
| 20260507120137 | 8 | 141 | 1.6 | 1.6 | 0.00 | 0.10 | 0.10 | 82 | 1014.0 |
| 20260507115633 | 8 | 88 | 0.0 | 1.6 | 0.00 | 0.10 | 0.10 | 83 | 1013.9 |
| 20260507115128 | 8 | 279 | 0.0 | 0.0 | 0.00 | 0.10 | 0.10 | 82 | 1014.1 |
| 20260507114625 | 8 | 259 | 0.0 | 1.6 | 0.00 | 0.10 | 0.10 | 82 | 1014.2 |
| 20260507114122 | 8 | 229 | 4.8 | 8.0 | 0.00 | 0.10 | 0.10 | 82 | 1014.1 |
| 20260507113619 | 8 | 290 | 1.6 | 1.6 | 0.00 | 0.10 | 0.10 | 81 | 1014.2 |
| 20260507113116 | 9 | 284 | 1.6 | 3.2 | 0.00 | 0.10 | 0.10 | 80 | 1014.1 |
| 20260507112614 | 9 | 286 | 0.0 | 3.2 | 0.00 | 0.10 | 0.10 | 80 | 1014.4 |
| 20260507112110 | 10 | 290 | 1.6 | 3.2 | 0.00 | 0.10 | 0.10 | 79 | 1014.3 |
| 20260507111608 | 10 | 275 | 1.6 | 4.8 | 0.00 | 0.10 | 0.10 | 79 | 1014.3 |
| 20260507111104 | 10 | 228 | 1.6 | 4.8 | 0.00 | 0.10 | 0.10 | 79 | 1014.3 |
| 20260507110601 | 10 | 228 | 4.8 | 9.7 | 0.00 | 0.10 | 0.10 | 78 | 1014.3 |
| 20260507110057 | 10 | 230 | 4.8 | 11.3 | 0.00 | 0.10 | 0.10 | 79 | 1014.4 |
| 20260507105554 | 10 | 216 | 3.2 | 4.8 | 0.00 | 0.10 | 0.10 | 78 | 1014.3 |
| 20260507105050 | 10 | 234 | 4.8 | 4.8 | 0.00 | 0.10 | 0.10 | 77 | 1014.2 |
| 20260507104548 | 10 | 92 | 1.6 | 1.6 | 0.00 | 0.10 | 0.10 | 78 | 1014.2 |
| 20260507104044 | 10 | 287 | 8.0 | 14.5 | 0.00 | 0.10 | 0.10 | 79 | 1014.5 |
| 20260507103540 | 10 | 245 | 16.1 | 20.9 | 0.00 | 0.10 | 0.10 | 79 | 1014.3 |
| 20260507103037 | 10 | 322 | 1.6 | 3.2 | 0.00 | 0.10 | 0.10 | 79 | 1014.4 |
| 20260507102534 | 10 | 353 | 4.8 | 9.7 | 0.00 | 0.10 | 0.10 | 78 | 1014.3 |
| 20260507102031 | 10 | 13 | 4.8 | 9.7 | 0.00 | 0.10 | 0.10 | 78 | 1014.4 |
| 20260507101525 | 10 | 32 | 6.4 | 12.9 | 0.00 | 0.10 | 0.10 | 77 | 1014.7 |
| 20260507101022 | 10 | 316 | 11.3 | 20.9 | 0.36 | 0.10 | 0.10 | 74 | 1014.8 |
| 20260507100519 | 10 | 310 | 11.3 | 22.5 | 0.66 | 0.10 | 0.10 | 77 | 1015.1 |
| 20260507100017 | 10 | 313 | 14.5 | 43.5 | 0.30 | 0.05 | 0.05 | 72 | 1015.6 |
| 20260507095515 | 10 | 340 | 38.6 | 51.5 | 0.00 | 0.00 | 0.00 | 73 | 1015.2 |
| 20260507095011 | 11 | 348 | 20.9 | 38.6 | 0.00 | 0.00 | 0.00 | 66 | 1015.1 |
| 20260507094508 | 12 | 310 | 32.2 | 61.2 | 0.00 | 0.00 | 0.00 | 62 | 1015.0 |
| 20260507094005 | 12 | 35 | 25.7 | 35.4 | 0.00 | 0.00 | 0.00 | 63 | 1014.9 |
| 20260507093502 | 11 | 313 | 14.5 | 20.9 | 0.00 | 0.00 | 0.00 | 67 | 1014.4 |
| 20260507093001 | 12 | 355 | 8.0 | 11.3 | 0.00 | 0.00 | 0.00 | 64 | 1013.8 |
| 20260507092457 | 12 | 316 | 6.4 | 8.0 | 0.00 | 0.00 | 0.00 | 61 | 1013.5 |
| 20260507091954 | 13 | 298 | 4.8 | 8.0 | 0.00 | 0.00 | 0.00 | 56 | 1013.2 |
| 20260507091450 | 13 | 329 | 4.8 | 9.7 | 0.00 | 0.00 | 0.00 | 55 | 1013.2 |
| 20260507090946 | 13 | 346 | 4.8 | 4.8 | 0.00 | 0.00 | 0.00 | 54 | 1013.0 |
| 20260507090442 | 14 | 266 | 8.0 | 9.7 | 0.00 | 0.00 | 0.00 | 49 | 1012.7 |
| 20260507085939 | 15 | 281 | 8.0 | 17.7 | 0.00 | 0.00 | 0.00 | 48 | 1012.6 |
| 20260507085436 | 14 | 274 | 9.7 | 14.5 | 0.00 | 0.00 | 0.00 | 47 | 1012.5 |
| 20260507084933 | 13 | 248 | 4.8 | 8.0 | 0.00 | 0.00 | 0.00 | 52 | 1012.4 |
| 20260507084430 | 13 | 233 | 4.8 | 4.8 | 0.00 | 0.00 | 0.00 | 53 | 1012.9 |
| 20260507083927 | 13 | 254 | 4.8 | 4.8 | 0.00 | 0.00 | 0.00 | 54 | 1012.7 |
| 20260507083423 | 13 | 239 | 4.8 | 4.8 | 0.00 | 0.00 | 0.00 | 54 | 1012.9 |
| 20260507082919 | 13 | 231 | 6.4 | 8.0 | 0.00 | 0.00 | 0.00 | 54 | 1012.7 |
| 20260507082416 | 13 | 254 | 4.8 | 8.0 | 0.00 | 0.00 | 0.00 | 56 | 1012.9 |
| 20260507081913 | 13 | 238 | 4.8 | 8.0 | 0.00 | 0.00 | 0.00 | 57 | 1012.9 |
| 20260507081408 | 13 | 217 | 3.2 | 4.8 | 0.00 | 0.00 | 0.00 | 58 | 1012.9 |
| 20260507080905 | 12 | 227 | 8.0 | 9.7 | 0.00 | 0.00 | 0.00 | 60 | 1012.6 |
| 20260507080402 | 12 | 221 | 4.8 | 8.0 | 0.00 | 0.00 | 0.00 | 62 | 1012.5 |
| 20260507075857 | 12 | 232 | 6.4 | 9.7 | 0.00 | 0.00 | 0.00 | 62 | 1012.6 |
| 20260507075353 | 11 | 236 | 3.2 | 4.8 | 0.00 | 0.00 | 0.00 | 65 | 1012.5 |
| 20260507074850 | 12 | 229 | 1.6 | 4.8 | 0.00 | 0.00 | 0.00 | 66 | 1012.7 |
| 20260507074347 | 12 | 212 | 6.4 | 8.0 | 0.00 | 0.00 | 0.00 | 64 | 1012.5 |
| 20260507073844 | 12 | 184 | 4.8 | 9.7 | 0.00 | 0.00 | 0.00 | 63 | 1012.5 |
| 20260507073341 | 12 | 193 | 8.0 | 9.7 | 0.00 | 0.00 | 0.00 | 60 | 1012.6 |
| 20260507072838 | 12 | 174 | 6.4 | 9.7 | 0.00 | 0.00 | 0.00 | 61 | 1012.5 |
| 20260507072336 | 12 | 209 | 4.8 | 8.0 | 0.00 | 0.00 | 0.00 | 63 | 1012.6 |
| 20260507071833 | 12 | 198 | 4.8 | 8.0 | 0.00 | 0.00 | 0.00 | 64 | 1012.4 |
| 20260507071330 | 12 | 226 | 3.2 | 4.8 | 0.00 | 0.00 | 0.00 | 66 | 1012.7 |
| 20260507070826 | 12 | 153 | 4.8 | 4.8 | 0.00 | 0.00 | 0.00 | 63 | 1012.4 |
| 20260507070324 | 12 | 248 | 3.2 | 3.2 | 0.00 | 0.00 | 0.00 | 61 | 1012.5 |
| 20260507065820 | 13 | 228 | 6.4 | 9.7 | 0.00 | 0.00 | 0.00 | 59 | 1012.5 |
| 20260507065317 | 13 | 236 | 8.0 | 12.9 | 0.00 | 0.00 | 0.00 | 54 | 1012.6 |
| 20260507064814 | 13 | 241 | 14.5 | 17.7 | 0.00 | 0.00 | 0.00 | 55 | 1012.3 |
| 20260507064313 | 13 | 339 | 1.6 | 4.8 | 0.00 | 0.00 | 0.00 | 54 | 1012.1 |
| 20260507063810 | 13 | 100 | 8.0 | 11.3 | 0.00 | 0.00 | 0.00 | 53 | 1012.4 |
| 20260507063307 | 13 | 342 | 4.8 | 9.7 | 0.00 | 0.00 | 0.00 | 54 | 1012.3 |
| 20260507062803 | 13 | 6 | 8.0 | 16.1 | 0.00 | 0.00 | 0.00 | 54 | 1012.3 |
| 20260507062301 | 14 | 74 | 8.0 | 22.5 | 0.00 | 0.00 | 0.00 | 56 | 1012.9 |
| 20260507061759 | 14 | 339 | 9.7 | 20.9 | 0.00 | 0.00 | 0.00 | 54 | 1013.0 |
| 20260507061256 | 14 | 324 | 16.1 | 37.0 | 0.00 | 0.00 | 0.00 | 55 | 1013.6 |
| 20260507060754 | 13 | 354 | 16.1 | 22.5 | 0.00 | 0.00 | 0.00 | 56 | 1013.1 |
| 20260507060250 | 15 | 316 | 19.3 | 40.2 | 0.00 | 0.00 | 0.00 | 48 | 1013.0 |
| 20260507055747 | 15 | 301 | 22.5 | 27.4 | 0.00 | 0.00 | 0.00 | 49 | 1013.2 |
| 20260507055242 | 15 | 327 | 12.9 | 17.7 | 0.00 | 0.00 | 0.00 | 52 | 1013.2 |
| 20260507054739 | 15 | 332 | 14.5 | 25.7 | 0.00 | 0.00 | 0.00 | 50 | 1013.2 |
| 20260507054236 | 16 | 276 | 16.1 | 24.1 | 0.00 | 0.00 | 0.00 | 43 | 1012.9 |
| 20260507053733 | 16 | 330 | 8.0 | 27.4 | 0.00 | 0.00 | 0.00 | 45 | 1012.7 |
| 20260507053231 | 16 | 327 | 19.3 | 27.4 | 0.00 | 0.00 | 0.00 | 44 | 1012.7 |
| 20260507052730 | 17 | 317 | 17.7 | 38.6 | 0.00 | 0.00 | 0.00 | 37 | 1012.4 |
| 20260507052225 | 16 | 302 | 14.5 | 35.4 | 0.00 | 0.00 | 0.00 | 39 | 1012.6 |
| 20260507051724 | 16 | 289 | 40.2 | 54.7 | 0.00 | 0.00 | 0.00 | 39 | 1012.5 |
| 20260507051220 | 15 | 315 | 38.6 | 51.5 | 0.00 | 0.00 | 0.00 | 43 | 1012.5 |
| 20260507050717 | 15 | 318 | 17.7 | 27.4 | 0.00 | 0.00 | 0.00 | 45 | 1012.9 |
| 20260507050214 | 15 | 305 | 19.3 | 32.2 | 0.00 | 0.00 | 0.00 | 46 | 1012.9 |
| 20260507045711 | 16 | 358 | 14.5 | 22.5 | 0.00 | 0.00 | 0.00 | 44 | 1013.0 |
| 20260507045207 | 15 | 328 | 14.5 | 22.5 | 0.00 | 0.00 | 0.00 | 44 | 1012.6 |
| 20260507044704 | 16 | 346 | 16.1 | 25.7 | 0.00 | 0.00 | 0.00 | 43 | 1013.0 |
| 20260507044201 | 16 | 328 | 19.3 | 37.0 | 0.00 | 0.00 | 0.00 | 42 | 1012.9 |
| 20260507043657 | 16 | 300 | 25.7 | 40.2 | 0.00 | 0.00 | 0.00 | 40 | 1013.0 |
| 20260507043154 | 17 | 291 | 17.7 | 22.5 | 0.00 | 0.00 | 0.00 | 38 | 1012.5 |
| 20260507042650 | 17 | 295 | 16.1 | 24.1 | 0.00 | 0.00 | 0.00 | 38 | 1012.5 |
| 20260507042145 | 17 | 291 | 11.3 | 20.9 | 0.00 | 0.00 | 0.00 | 38 | 1012.1 |
| 20260507041643 | 17 | 299 | 14.5 | 22.5 | 0.00 | 0.00 | 0.00 | 38 | 1012.5 |
| 20260507041139 | 17 | 308 | 17.7 | 24.1 | 0.00 | 0.00 | 0.00 | 38 | 1012.4 |
| 20260507040636 | 17 | 305 | 16.1 | 27.4 | 0.00 | 0.00 | 0.00 | 38 | 1012.3 |
| 20260507040132 | 17 | 293 | 17.7 | 20.9 | 0.00 | 0.00 | 0.00 | 38 | 1012.3 |
| 20260507035628 | 17 | 299 | 14.5 | 17.7 | 0.00 | 0.00 | 0.00 | 38 | 1012.5 |
| 20260507035124 | 17 | 279 | 8.0 | 20.9 | 0.00 | 0.00 | 0.00 | 38 | 1012.4 |
| 20260507034621 | 17 | 283 | 12.9 | 16.1 | 0.00 | 0.00 | 0.00 | 37 | 1012.3 |
| 20260507034119 | 17 | 282 | 16.1 | 24.1 | 0.00 | 0.00 | 0.00 | 37 | 1012.0 |
| 20260507033617 | 17 | 289 | 16.1 | 17.7 | 0.00 | 0.00 | 0.00 | 37 | 1012.0 |
| 20260507033114 | 17 | 280 | 16.1 | 20.9 | 0.00 | 0.00 | 0.00 | 37 | 1011.8 |
| 20260507032611 | 17 | 286 | 11.3 | 17.7 | 0.00 | 0.00 | 0.00 | 37 | 1011.8 |
| 20260507032107 | 17 | 268 | 12.9 | 17.7 | 0.00 | 0.00 | 0.00 | 37 | 1011.7 |
| 20260507031604 | 17 | 278 | 14.5 | 20.9 | 0.00 | 0.00 | 0.00 | 36 | 1011.5 |
| 20260507031101 | 17 | 293 | 17.7 | 25.7 | 0.00 | 0.00 | 0.00 | 35 | 1011.5 |
| 20260507030557 | 17 | 283 | 16.1 | 24.1 | 0.00 | 0.00 | 0.00 | 35 | 1011.6 |
| 20260507030055 | 17 | 281 | 16.1 | 20.9 | 0.00 | 0.00 | 0.00 | 36 | 1011.5 |
| 20260507025552 | 18 | 290 | 14.5 | 24.1 | 0.00 | 0.00 | 0.00 | 35 | 1011.7 |
| 20260507025049 | 18 | 274 | 16.1 | 33.8 | 0.00 | 0.00 | 0.00 | 35 | 1012.0 |
| 20260507024547 | 18 | 299 | 16.1 | 33.8 | 0.00 | 0.00 | 0.00 | 35 | 1011.4 |